createdAt,value
2018-09-17T00:00:02.976Z,155
2018-09-17T00:00:15.400Z,145
2018-09-17T00:00:27.851Z,145
2018-09-17T00:00:40.361Z,145
2018-09-17T00:00:52.797Z,145
2018-09-17T00:01:05.397Z,145
2018-09-17T00:01:17.840Z,145
2018-09-17T00:01:30.250Z,143
2018-09-17T00:01:42.693Z,136
2018-09-17T00:01:55.137Z,134
2018-09-17T00:02:07.549Z,134
2018-09-17T00:02:20.101Z,136
2018-09-17T00:02:32.522Z,141
2018-09-17T00:02:44.926Z,142
2018-09-17T00:02:57.461Z,143
2018-09-17T00:03:09.931Z,142
2018-09-17T00:03:22.758Z,142
2018-09-17T00:03:35.236Z,142
2018-09-17T00:03:47.684Z,142
2018-09-17T00:04:00.090Z,142
2018-09-17T00:04:12.495Z,142
2018-09-17T00:04:24.917Z,142
2018-09-17T00:04:37.336Z,143
2018-09-17T00:04:49.735Z,142
2018-09-17T00:05:02.155Z,142
2018-09-17T00:05:14.665Z,142
2018-09-17T00:05:27.081Z,142
2018-09-17T00:05:39.491Z,143
2018-09-17T00:05:51.963Z,134
2018-09-17T00:06:04.415Z,134
2018-09-17T00:06:16.853Z,134
2018-09-17T00:06:29.280Z,134
2018-09-17T00:06:41.709Z,134
2018-09-17T00:06:54.133Z,134
2018-09-17T00:07:06.535Z,134
2018-09-17T00:07:18.954Z,134
2018-09-17T00:07:31.364Z,134
2018-09-17T00:07:43.777Z,134
2018-09-17T00:07:56.192Z,134
2018-09-17T00:08:08.595Z,134
2018-09-17T00:08:21.020Z,134
2018-09-17T00:08:33.494Z,134
2018-09-17T00:08:45.926Z,134
2018-09-17T00:08:58.354Z,134
2018-09-17T00:09:10.807Z,134
2018-09-17T00:09:23.220Z,134
2018-09-17T00:09:35.634Z,134
2018-09-17T00:09:48.042Z,134
2018-09-17T00:10:00.438Z,134
2018-09-17T00:10:12.839Z,134
2018-09-17T00:10:25.313Z,134
2018-09-17T00:10:37.763Z,134
2018-09-17T00:10:50.186Z,134
2018-09-17T00:11:02.627Z,134
2018-09-17T00:11:15.065Z,134
2018-09-17T00:11:27.495Z,134
2018-09-17T00:11:39.924Z,134
2018-09-17T00:11:52.377Z,134
2018-09-17T00:12:04.761Z,134
2018-09-17T00:12:17.160Z,134
2018-09-17T00:12:29.592Z,134
2018-09-17T00:12:42.093Z,134
2018-09-17T00:12:54.519Z,134
2018-09-17T00:13:06.933Z,134
2018-09-17T00:13:19.558Z,134
2018-09-17T00:13:31.989Z,134
2018-09-17T00:13:44.429Z,134
2018-09-17T00:13:56.831Z,134
2018-09-17T00:14:09.220Z,134
2018-09-17T00:14:21.670Z,134
2018-09-17T00:14:34.256Z,134
2018-09-17T00:14:46.675Z,134
2018-09-17T00:14:59.086Z,134
2018-09-17T00:15:11.468Z,134
2018-09-17T00:15:23.875Z,134
2018-09-17T00:15:36.280Z,134
2018-09-17T00:15:48.693Z,134
2018-09-17T00:16:01.112Z,134
2018-09-17T00:16:13.521Z,134
2018-09-17T00:16:25.977Z,134
2018-09-17T00:16:38.385Z,134
2018-09-17T00:16:50.796Z,134
2018-09-17T00:17:03.349Z,134
2018-09-17T00:17:15.775Z,134
2018-09-17T00:17:28.204Z,134
2018-09-17T00:17:40.606Z,134
2018-09-17T00:17:53.039Z,134
2018-09-17T00:18:05.465Z,134
2018-09-17T00:18:17.917Z,134
2018-09-17T00:18:30.391Z,134
2018-09-17T00:18:42.816Z,134
2018-09-17T00:18:55.245Z,134
2018-09-17T00:19:07.739Z,134
2018-09-17T00:19:20.172Z,134
2018-09-17T00:19:32.588Z,134
2018-09-17T00:19:45.298Z,134
2018-09-17T00:19:57.727Z,134
2018-09-17T00:20:10.143Z,134
2018-09-17T00:20:22.561Z,134
2018-09-17T00:20:34.959Z,134
2018-09-17T00:20:47.360Z,134
2018-09-17T00:20:59.765Z,134
2018-09-17T00:21:12.166Z,134
2018-09-17T00:21:24.569Z,134
2018-09-17T00:21:37.135Z,134
2018-09-17T00:21:49.538Z,134
2018-09-17T00:22:01.954Z,134
2018-09-17T00:22:14.376Z,134
2018-09-17T00:22:26.792Z,134
2018-09-17T00:22:39.229Z,134
2018-09-17T00:22:51.621Z,134
2018-09-17T00:23:04.026Z,134
2018-09-17T00:23:16.417Z,134
2018-09-17T00:23:29.086Z,134
2018-09-17T00:23:41.497Z,134
2018-09-17T00:23:53.913Z,134
2018-09-17T00:24:06.440Z,134
2018-09-17T00:24:18.838Z,134
2018-09-17T00:24:31.244Z,134
2018-09-17T00:24:43.644Z,134
2018-09-17T00:24:56.067Z,134
2018-09-17T00:25:08.511Z,134
2018-09-17T00:25:20.927Z,134
2018-09-17T00:25:33.461Z,134
2018-09-17T00:25:45.852Z,134
2018-09-17T00:25:58.252Z,134
2018-09-17T00:26:10.638Z,134
2018-09-17T00:26:23.040Z,134
2018-09-17T00:26:35.455Z,134
2018-09-17T00:26:47.913Z,134
2018-09-17T00:27:00.315Z,134
2018-09-17T00:27:12.717Z,134
2018-09-17T00:27:25.123Z,134
2018-09-17T00:27:37.529Z,134
2018-09-17T00:27:49.995Z,134
2018-09-17T00:28:02.419Z,134
2018-09-17T00:28:14.822Z,134
2018-09-17T00:28:27.756Z,134
2018-09-17T00:28:40.189Z,134
2018-09-17T00:28:52.619Z,134
2018-09-17T00:29:05.094Z,134
2018-09-17T00:29:17.515Z,134
2018-09-17T00:29:29.925Z,134
2018-09-17T00:29:42.323Z,134
2018-09-17T00:29:54.729Z,134
2018-09-17T00:30:07.123Z,134
2018-09-17T00:30:19.546Z,134
2018-09-17T00:30:32.243Z,134
2018-09-17T00:30:44.632Z,134
2018-09-17T00:30:57.058Z,134
2018-09-17T00:31:09.494Z,134
2018-09-17T00:31:21.882Z,134
2018-09-17T00:31:34.336Z,134
2018-09-17T00:31:46.749Z,134
2018-09-17T00:31:59.154Z,134
2018-09-17T00:32:11.572Z,134
2018-09-17T00:32:23.989Z,134
2018-09-17T00:32:36.451Z,134
2018-09-17T00:32:48.845Z,134
2018-09-17T00:33:01.236Z,134
2018-09-17T00:33:13.663Z,134
2018-09-17T00:33:26.060Z,134
2018-09-17T00:33:38.571Z,134
2018-09-17T00:33:50.980Z,134
2018-09-17T00:34:03.548Z,134
2018-09-17T00:34:16.007Z,134
2018-09-17T00:34:28.421Z,134
2018-09-17T00:34:40.812Z,134
2018-09-17T00:34:53.225Z,134
2018-09-17T00:35:05.640Z,134
2018-09-17T00:35:18.062Z,134
2018-09-17T00:35:30.564Z,134
2018-09-17T00:35:42.970Z,134
2018-09-17T00:35:55.402Z,134
2018-09-17T00:36:07.836Z,134
2018-09-17T00:36:21.134Z,134
2018-09-17T00:36:33.562Z,134
2018-09-17T00:36:46.053Z,134
2018-09-17T00:36:58.484Z,134
2018-09-17T00:37:10.901Z,134
2018-09-17T00:37:23.343Z,134
2018-09-17T00:37:35.784Z,134
2018-09-17T00:37:48.197Z,134
2018-09-17T00:38:00.625Z,134
2018-09-17T00:38:13.060Z,134
2018-09-17T00:38:25.478Z,134
2018-09-17T00:38:37.908Z,134
2018-09-17T00:38:50.309Z,134
2018-09-17T00:39:02.717Z,134
2018-09-17T00:39:15.127Z,134
2018-09-17T00:39:27.525Z,134
2018-09-17T00:39:39.928Z,134
2018-09-17T00:39:52.393Z,134
2018-09-17T00:40:04.799Z,134
2018-09-17T00:40:17.337Z,134
2018-09-17T00:40:29.719Z,134
2018-09-17T00:40:42.126Z,134
2018-09-17T00:40:54.524Z,134
2018-09-17T00:41:06.909Z,134
2018-09-17T00:41:19.315Z,134
2018-09-17T00:41:31.713Z,134
2018-09-17T00:41:44.109Z,134
2018-09-17T00:41:56.534Z,134
2018-09-17T00:42:09.079Z,134
2018-09-17T00:42:21.506Z,134
2018-09-17T00:42:33.930Z,134
2018-09-17T00:42:46.345Z,134
2018-09-17T00:42:58.753Z,134
2018-09-17T00:43:11.178Z,134
2018-09-17T00:43:23.584Z,134
2018-09-17T00:43:35.997Z,134
2018-09-17T00:43:48.429Z,134
2018-09-17T00:44:00.872Z,134
2018-09-17T00:44:13.590Z,134
2018-09-17T00:44:26.315Z,134
2018-09-17T00:44:38.745Z,134
2018-09-17T00:44:51.172Z,134
2018-09-17T00:45:03.596Z,134
2018-09-17T00:45:16.030Z,134
2018-09-17T00:45:28.440Z,134
2018-09-17T00:45:40.853Z,134
2018-09-17T00:45:53.280Z,134
2018-09-17T00:46:05.674Z,134
2018-09-17T00:46:18.069Z,134
2018-09-17T00:46:30.492Z,134
2018-09-17T00:46:42.959Z,134
2018-09-17T00:46:55.364Z,134
2018-09-17T00:47:07.815Z,134
2018-09-17T00:47:20.231Z,134
2018-09-17T00:47:32.696Z,134
2018-09-17T00:47:45.131Z,134
2018-09-17T00:47:57.517Z,134
2018-09-17T00:48:09.916Z,134
2018-09-17T00:48:22.352Z,134
2018-09-17T00:48:34.773Z,134
2018-09-17T00:48:47.212Z,134
2018-09-17T00:48:59.605Z,134
2018-09-17T00:49:12.007Z,134
2018-09-17T00:49:24.530Z,134
2018-09-17T00:49:37.333Z,134
2018-09-17T00:49:49.728Z,134
2018-09-17T00:50:02.121Z,134
2018-09-17T00:50:14.560Z,134
2018-09-17T00:50:26.979Z,134
2018-09-17T00:50:39.368Z,134
2018-09-17T00:50:51.770Z,134
2018-09-17T00:51:04.347Z,134
2018-09-17T00:51:16.786Z,134
2018-09-17T00:51:29.187Z,134
2018-09-17T00:51:41.588Z,134
2018-09-17T00:51:54.027Z,134
2018-09-17T00:52:06.580Z,134
2018-09-17T00:52:18.986Z,134
2018-09-17T00:52:31.393Z,134
2018-09-17T00:52:43.818Z,134
2018-09-17T00:52:56.213Z,134
2018-09-17T00:53:08.654Z,134
2018-09-17T00:53:21.084Z,134
2018-09-17T00:53:33.469Z,134
2018-09-17T00:53:45.861Z,134
2018-09-17T00:53:58.275Z,134
2018-09-17T00:54:10.685Z,134
2018-09-17T00:54:23.093Z,134
2018-09-17T00:54:35.561Z,134
2018-09-17T00:54:47.959Z,134
2018-09-17T00:55:00.349Z,134
2018-09-17T00:55:12.881Z,134
2018-09-17T00:55:25.282Z,134
2018-09-17T00:55:37.794Z,134
2018-09-17T00:55:50.197Z,134
2018-09-17T00:56:02.575Z,134
2018-09-17T00:56:14.977Z,134
2018-09-17T00:56:27.406Z,134
2018-09-17T00:56:39.810Z,134
2018-09-17T00:56:52.223Z,134
2018-09-17T00:57:04.623Z,134
2018-09-17T00:57:17.054Z,134
2018-09-17T00:57:29.490Z,134
2018-09-17T00:57:42.058Z,134
2018-09-17T00:57:55.409Z,134
2018-09-17T00:58:08.621Z,134
2018-09-17T00:58:21.107Z,134
2018-09-17T00:58:33.526Z,134
2018-09-17T00:58:45.949Z,134
2018-09-17T00:58:58.372Z,134
2018-09-17T00:59:10.950Z,134
2018-09-17T00:59:23.364Z,134
2018-09-17T00:59:35.779Z,134
2018-09-17T00:59:48.205Z,134
2018-09-17T01:00:00.593Z,134
2018-09-17T01:00:13.052Z,134
2018-09-17T01:00:25.476Z,134
2018-09-17T01:00:37.911Z,134
2018-09-17T01:00:50.339Z,134
2018-09-17T01:01:02.769Z,134
2018-09-17T01:01:15.205Z,134
2018-09-17T01:01:27.621Z,134
2018-09-17T01:01:40.070Z,134
2018-09-17T01:01:52.465Z,134
2018-09-17T01:02:04.899Z,134
2018-09-17T01:02:17.315Z,134
2018-09-17T01:02:29.730Z,134
2018-09-17T01:02:42.122Z,134
2018-09-17T01:02:54.534Z,134
2018-09-17T01:03:06.969Z,134
2018-09-17T01:03:19.420Z,134
2018-09-17T01:03:32.257Z,134
2018-09-17T01:03:44.678Z,134
2018-09-17T01:03:57.085Z,134
2018-09-17T01:04:09.557Z,134
2018-09-17T01:04:21.971Z,134
2018-09-17T01:04:34.369Z,134
2018-09-17T01:04:46.776Z,134
2018-09-17T01:04:59.222Z,134
2018-09-17T01:05:11.652Z,134
2018-09-17T01:05:24.068Z,134
2018-09-17T01:05:36.469Z,134
2018-09-17T01:05:48.873Z,134
2018-09-17T01:06:01.273Z,134
2018-09-17T01:06:13.681Z,134
2018-09-17T01:06:26.068Z,134
2018-09-17T01:06:38.467Z,134
2018-09-17T01:06:50.859Z,134
2018-09-17T01:07:03.291Z,134
2018-09-17T01:07:15.740Z,134
2018-09-17T01:07:28.145Z,134
2018-09-17T01:07:40.574Z,134
2018-09-17T01:07:53.000Z,134
2018-09-17T01:08:05.411Z,134
2018-09-17T01:08:17.933Z,134
2018-09-17T01:08:31.091Z,134
2018-09-17T01:08:43.504Z,134
2018-09-17T01:08:55.892Z,134
2018-09-17T01:09:08.324Z,134
2018-09-17T01:09:20.727Z,134
2018-09-17T01:09:33.182Z,134
2018-09-17T01:09:45.629Z,134
2018-09-17T01:09:58.056Z,134
2018-09-17T01:10:10.511Z,134
2018-09-17T01:10:23.050Z,134
2018-09-17T01:10:35.440Z,134
2018-09-17T01:10:47.840Z,134
2018-09-17T01:11:00.269Z,134
2018-09-17T01:11:12.682Z,134
2018-09-17T01:11:25.108Z,134
2018-09-17T01:11:37.523Z,134
2018-09-17T01:11:49.955Z,134
2018-09-17T01:12:02.381Z,134
2018-09-17T01:12:14.784Z,134
2018-09-17T01:12:27.196Z,134
2018-09-17T01:12:39.614Z,134
2018-09-17T01:12:52.038Z,134
2018-09-17T01:13:04.447Z,134
2018-09-17T01:13:17.049Z,134
2018-09-17T01:13:29.488Z,134
2018-09-17T01:13:41.892Z,134
2018-09-17T01:13:54.283Z,134
2018-09-17T01:14:06.700Z,134
2018-09-17T01:14:19.104Z,134
2018-09-17T01:14:31.495Z,134
2018-09-17T01:14:44.264Z,134
2018-09-17T01:14:56.680Z,134
2018-09-17T01:15:09.136Z,134
2018-09-17T01:15:21.575Z,134
2018-09-17T01:15:33.990Z,134
2018-09-17T01:15:46.407Z,134
2018-09-17T01:15:58.824Z,134
2018-09-17T01:16:11.230Z,134
2018-09-17T01:16:23.644Z,134
2018-09-17T01:16:36.043Z,134
2018-09-17T01:16:48.425Z,134
2018-09-17T01:17:00.936Z,134
2018-09-17T01:17:13.404Z,134
2018-09-17T01:17:25.806Z,134
2018-09-17T01:17:38.200Z,134
2018-09-17T01:17:50.628Z,134
2018-09-17T01:18:03.026Z,134
2018-09-17T01:18:15.418Z,134
2018-09-17T01:18:27.858Z,134
2018-09-17T01:18:40.267Z,134
2018-09-17T01:18:52.720Z,134
2018-09-17T01:19:05.126Z,134
2018-09-17T01:19:17.553Z,134
2018-09-17T01:19:29.989Z,134
2018-09-17T01:19:42.409Z,134
2018-09-17T01:19:54.808Z,134
2018-09-17T01:20:07.229Z,134
2018-09-17T01:20:19.647Z,134
2018-09-17T01:20:32.066Z,134
2018-09-17T01:20:44.529Z,134
2018-09-17T01:20:56.936Z,134
2018-09-17T01:21:09.491Z,134
2018-09-17T01:21:21.902Z,134
2018-09-17T01:21:34.591Z,134
2018-09-17T01:21:47.015Z,134
2018-09-17T01:21:59.411Z,134
2018-09-17T01:22:11.856Z,134
2018-09-17T01:22:24.271Z,134
2018-09-17T01:22:36.687Z,134
2018-09-17T01:22:49.106Z,134
2018-09-17T01:23:01.495Z,134
2018-09-17T01:23:13.887Z,134
2018-09-17T01:23:26.456Z,134
2018-09-17T01:23:38.865Z,134
2018-09-17T01:23:51.290Z,134
2018-09-17T01:24:03.713Z,134
2018-09-17T01:24:16.340Z,134
2018-09-17T01:24:28.749Z,134
2018-09-17T01:24:41.203Z,134
2018-09-17T01:24:53.628Z,134
2018-09-17T01:25:06.036Z,134
2018-09-17T01:25:18.504Z,134
2018-09-17T01:25:30.913Z,134
2018-09-17T01:25:43.512Z,134
2018-09-17T01:25:55.929Z,134
2018-09-17T01:26:08.367Z,134
2018-09-17T01:26:20.815Z,134
2018-09-17T01:26:33.231Z,134
2018-09-17T01:26:45.645Z,134
2018-09-17T01:26:58.037Z,134
2018-09-17T01:27:10.449Z,134
2018-09-17T01:27:22.887Z,134
2018-09-17T01:27:35.322Z,134
2018-09-17T01:27:47.733Z,134
2018-09-17T01:28:00.151Z,134
2018-09-17T01:28:12.557Z,134
2018-09-17T01:28:24.982Z,134
2018-09-17T01:28:37.432Z,134
2018-09-17T01:28:49.880Z,134
2018-09-17T01:29:02.283Z,134
2018-09-17T01:29:14.772Z,134
2018-09-17T01:29:27.174Z,134
2018-09-17T01:29:39.587Z,134
2018-09-17T01:29:51.997Z,134
2018-09-17T01:30:04.398Z,134
2018-09-17T01:30:16.796Z,134
2018-09-17T01:30:29.832Z,134
2018-09-17T01:30:44.182Z,134
2018-09-17T01:30:56.635Z,134
2018-09-17T01:31:09.183Z,134
2018-09-17T01:31:21.647Z,134
2018-09-17T01:31:34.155Z,134
2018-09-17T01:31:46.881Z,134
2018-09-17T01:31:59.303Z,134
2018-09-17T01:32:11.728Z,134
2018-09-17T01:32:24.135Z,134
2018-09-17T01:32:36.645Z,134
2018-09-17T01:32:49.049Z,134
2018-09-17T01:33:01.681Z,134
2018-09-17T01:33:14.125Z,134
2018-09-17T01:33:26.558Z,134
2018-09-17T01:33:39.093Z,134
2018-09-17T01:33:51.510Z,134
2018-09-17T01:34:03.974Z,134
2018-09-17T01:34:16.436Z,134
2018-09-17T01:34:28.876Z,134
2018-09-17T01:34:41.310Z,134
2018-09-17T01:34:53.741Z,134
2018-09-17T01:35:06.198Z,134
2018-09-17T01:35:18.633Z,134
2018-09-17T01:35:31.052Z,134
2018-09-17T01:35:43.583Z,134
2018-09-17T01:35:56.005Z,134
2018-09-17T01:36:08.410Z,134
2018-09-17T01:36:20.894Z,134
2018-09-17T01:36:33.344Z,134
2018-09-17T01:36:45.799Z,134
2018-09-17T01:36:58.283Z,134
2018-09-17T01:37:10.791Z,134
2018-09-17T01:37:23.227Z,134
2018-09-17T01:37:35.671Z,134
2018-09-17T01:37:48.107Z,134
2018-09-17T01:38:00.554Z,134
2018-09-17T01:38:12.980Z,134
2018-09-17T01:38:25.425Z,134
2018-09-17T01:38:37.852Z,134
2018-09-17T01:38:50.263Z,134
2018-09-17T01:39:02.756Z,134
2018-09-17T01:39:15.165Z,134
2018-09-17T01:39:27.636Z,134
2018-09-17T01:39:40.044Z,134
2018-09-17T01:39:52.444Z,134
2018-09-17T01:40:04.840Z,134
2018-09-17T01:40:17.342Z,134
2018-09-17T01:40:29.753Z,134
2018-09-17T01:40:42.181Z,134
2018-09-17T01:40:54.626Z,134
2018-09-17T01:41:07.019Z,134
2018-09-17T01:41:19.432Z,134
2018-09-17T01:41:31.854Z,134
2018-09-17T01:41:44.307Z,134
2018-09-17T01:41:56.742Z,134
2018-09-17T01:42:09.172Z,134
2018-09-17T01:42:21.568Z,134
2018-09-17T01:42:33.964Z,134
2018-09-17T01:42:46.365Z,134
2018-09-17T01:42:58.809Z,134
2018-09-17T01:43:11.218Z,134
2018-09-17T01:43:23.633Z,134
2018-09-17T01:43:36.036Z,134
2018-09-17T01:43:48.452Z,134
2018-09-17T01:44:00.873Z,134
2018-09-17T01:44:13.274Z,134
2018-09-17T01:44:25.959Z,134
2018-09-17T01:44:38.394Z,134
2018-09-17T01:44:50.810Z,134
2018-09-17T01:45:03.222Z,134
2018-09-17T01:45:15.676Z,134
2018-09-17T01:45:28.087Z,134
2018-09-17T01:45:40.521Z,134
2018-09-17T01:45:52.982Z,134
2018-09-17T01:46:05.593Z,134
2018-09-17T01:46:18.733Z,134
2018-09-17T01:46:31.934Z,134
2018-09-17T01:46:44.360Z,134
2018-09-17T01:46:56.827Z,134
2018-09-17T01:47:09.259Z,134
2018-09-17T01:47:21.690Z,134
2018-09-17T01:47:34.119Z,134
2018-09-17T01:47:46.568Z,134
2018-09-17T01:47:58.999Z,134
2018-09-17T01:48:11.569Z,134
2018-09-17T01:48:23.983Z,134
2018-09-17T01:48:36.415Z,134
2018-09-17T01:48:48.849Z,134
2018-09-17T01:49:01.278Z,134
2018-09-17T01:49:13.695Z,134
2018-09-17T01:49:26.316Z,134
2018-09-17T01:49:38.807Z,134
2018-09-17T01:49:51.687Z,134
2018-09-17T01:50:04.108Z,134
2018-09-17T01:50:16.521Z,134
2018-09-17T01:50:28.948Z,134
2018-09-17T01:50:41.376Z,134
2018-09-17T01:50:53.944Z,134
2018-09-17T01:51:06.368Z,134
2018-09-17T01:51:18.801Z,134
2018-09-17T01:51:31.201Z,134
2018-09-17T01:51:43.605Z,134
2018-09-17T01:51:56.009Z,134
2018-09-17T01:52:08.480Z,134
2018-09-17T01:52:20.916Z,134
2018-09-17T01:52:33.331Z,134
2018-09-17T01:52:45.797Z,134
2018-09-17T01:52:58.243Z,134
2018-09-17T01:53:10.642Z,134
2018-09-17T01:53:23.069Z,134
2018-09-17T01:53:35.469Z,134
2018-09-17T01:53:47.892Z,134
2018-09-17T01:54:00.296Z,134
2018-09-17T01:54:12.699Z,134
2018-09-17T01:54:25.157Z,134
2018-09-17T01:54:37.554Z,134
2018-09-17T01:54:49.952Z,134
2018-09-17T01:55:02.386Z,134
2018-09-17T01:55:14.784Z,134
2018-09-17T01:55:27.212Z,134
2018-09-17T01:55:39.775Z,134
2018-09-17T01:55:52.208Z,134
2018-09-17T01:56:04.607Z,134
2018-09-17T01:56:17.026Z,134
2018-09-17T01:56:29.450Z,134
2018-09-17T01:56:41.913Z,134
2018-09-17T01:56:54.344Z,134
2018-09-17T01:57:06.768Z,134
2018-09-17T01:57:19.205Z,134
2018-09-17T01:57:31.657Z,134
2018-09-17T01:57:44.058Z,134
2018-09-17T01:57:56.478Z,134
2018-09-17T01:58:08.917Z,134
2018-09-17T01:58:21.348Z,134
2018-09-17T01:58:33.770Z,134
2018-09-17T01:58:46.205Z,134
2018-09-17T01:58:58.842Z,134
2018-09-17T01:59:11.307Z,134
2018-09-17T01:59:23.719Z,134
2018-09-17T01:59:36.135Z,134
2018-09-17T01:59:48.575Z,134
2018-09-17T02:00:01.000Z,134
2018-09-17T02:00:13.448Z,134
2018-09-17T02:00:25.866Z,134
2018-09-17T02:00:38.297Z,134
2018-09-17T02:00:50.754Z,134
2018-09-17T02:01:03.361Z,134
2018-09-17T02:01:15.787Z,134
2018-09-17T02:01:28.272Z,134
2018-09-17T02:01:40.747Z,134
2018-09-17T02:01:53.214Z,134
2018-09-17T02:02:05.645Z,134
2018-09-17T02:02:18.091Z,134
2018-09-17T02:02:30.498Z,134
2018-09-17T02:02:42.943Z,134
2018-09-17T02:02:55.352Z,134
2018-09-17T02:03:07.762Z,134
2018-09-17T02:03:20.173Z,134
2018-09-17T02:03:32.812Z,134
2018-09-17T02:03:45.231Z,134
2018-09-17T02:03:57.706Z,134
2018-09-17T02:04:10.115Z,134
2018-09-17T02:04:22.551Z,134
2018-09-17T02:04:34.959Z,134
2018-09-17T02:04:47.385Z,134
2018-09-17T02:04:59.858Z,134
2018-09-17T02:05:12.282Z,134
2018-09-17T02:05:24.674Z,134
2018-09-17T02:05:37.094Z,134
2018-09-17T02:05:49.494Z,134
2018-09-17T02:06:01.910Z,134
2018-09-17T02:06:14.315Z,134
2018-09-17T02:06:26.752Z,134
2018-09-17T02:06:39.160Z,134
2018-09-17T02:06:51.623Z,134
2018-09-17T02:07:04.349Z,134
2018-09-17T02:07:16.756Z,134
2018-09-17T02:07:29.218Z,134
2018-09-17T02:07:41.659Z,134
2018-09-17T02:07:54.062Z,134
2018-09-17T02:08:06.962Z,134
2018-09-17T02:08:19.994Z,134
2018-09-17T02:08:32.761Z,134
2018-09-17T02:08:45.906Z,134
2018-09-17T02:08:59.461Z,134
2018-09-17T02:09:12.722Z,134
2018-09-17T02:09:25.372Z,134
2018-09-17T02:09:38.179Z,134
2018-09-17T02:09:51.202Z,134
2018-09-17T02:10:04.631Z,134
2018-09-17T02:10:17.185Z,134
2018-09-17T02:10:29.684Z,134
2018-09-17T02:10:42.102Z,134
2018-09-17T02:10:54.516Z,134
2018-09-17T02:11:06.929Z,134
2018-09-17T02:11:19.334Z,134
2018-09-17T02:11:31.766Z,134
2018-09-17T02:11:44.198Z,134
2018-09-17T02:11:56.622Z,134
2018-09-17T02:12:09.037Z,134
2018-09-17T02:12:21.437Z,134
2018-09-17T02:12:33.852Z,134
2018-09-17T02:12:46.252Z,134
2018-09-17T02:12:58.663Z,134
2018-09-17T02:13:11.076Z,134
2018-09-17T02:13:23.605Z,134
2018-09-17T02:13:36.037Z,134
2018-09-17T02:13:48.420Z,134
2018-09-17T02:14:00.833Z,134
2018-09-17T02:14:13.583Z,134
2018-09-17T02:14:25.990Z,134
2018-09-17T02:14:38.423Z,134
2018-09-17T02:14:50.957Z,134
2018-09-17T02:15:03.363Z,134
2018-09-17T02:15:15.773Z,134
2018-09-17T02:15:28.250Z,0
2018-09-17T02:15:40.650Z,0
2018-09-17T02:15:53.070Z,0
2018-09-17T02:16:05.475Z,0
2018-09-17T02:16:17.897Z,0
2018-09-17T02:16:30.291Z,0
2018-09-17T02:16:42.737Z,0
2018-09-17T02:16:55.229Z,0
2018-09-17T02:17:07.645Z,0
2018-09-17T02:17:20.260Z,0
2018-09-17T02:17:32.687Z,0
2018-09-17T02:17:45.100Z,0
2018-09-17T02:17:57.509Z,0
2018-09-17T02:18:09.932Z,0
2018-09-17T02:18:22.358Z,0
2018-09-17T02:18:34.762Z,0
2018-09-17T02:18:47.222Z,0
2018-09-17T02:18:59.626Z,0
2018-09-17T02:19:12.029Z,0
2018-09-17T02:19:24.453Z,0
2018-09-17T02:19:36.867Z,0
2018-09-17T02:19:49.293Z,0
2018-09-17T02:20:01.708Z,0
2018-09-17T02:20:14.129Z,0
2018-09-17T02:20:26.541Z,0
2018-09-17T02:20:38.957Z,0
2018-09-17T02:20:51.368Z,0
2018-09-17T02:21:03.766Z,0
2018-09-17T02:21:16.194Z,0
2018-09-17T02:21:28.663Z,0
2018-09-17T02:21:41.050Z,0
2018-09-17T02:21:53.451Z,0
2018-09-17T02:22:05.906Z,0
2018-09-17T02:22:18.322Z,0
2018-09-17T02:22:30.753Z,0
2018-09-17T02:22:43.149Z,0
2018-09-17T02:22:55.557Z,0
2018-09-17T02:23:07.961Z,0
2018-09-17T02:23:20.555Z,0
2018-09-17T02:23:32.954Z,0
2018-09-17T02:23:45.351Z,0
2018-09-17T02:23:57.759Z,0
2018-09-17T02:24:10.300Z,0
2018-09-17T02:24:22.746Z,0
2018-09-17T02:24:35.164Z,0
2018-09-17T02:24:47.553Z,0
2018-09-17T02:24:59.944Z,0
2018-09-17T02:25:12.368Z,0
2018-09-17T02:25:24.781Z,0
2018-09-17T02:25:37.196Z,0
2018-09-17T02:25:49.850Z,0
2018-09-17T02:26:02.240Z,0
2018-09-17T02:26:14.656Z,0
2018-09-17T02:26:27.067Z,0
2018-09-17T02:26:39.473Z,0
2018-09-17T02:26:51.889Z,0
2018-09-17T02:27:04.289Z,0
2018-09-17T02:27:16.721Z,0
2018-09-17T02:27:29.136Z,0
2018-09-17T02:27:41.591Z,0
2018-09-17T02:27:54.010Z,0
2018-09-17T02:28:06.486Z,0
2018-09-17T02:28:18.946Z,0
2018-09-17T02:28:31.408Z,0
2018-09-17T02:28:43.813Z,0
2018-09-17T02:28:56.228Z,0
2018-09-17T02:29:08.663Z,0
2018-09-17T02:29:21.105Z,0
2018-09-17T02:29:33.577Z,0
2018-09-17T02:29:46.008Z,0
2018-09-17T02:29:58.430Z,0
2018-09-17T02:30:10.889Z,0
2018-09-17T02:30:23.345Z,0
2018-09-17T02:30:35.769Z,0
2018-09-17T02:30:48.247Z,0
2018-09-17T02:31:00.673Z,0
2018-09-17T02:31:13.128Z,0
2018-09-17T02:31:25.535Z,0
2018-09-17T02:31:38.036Z,0
2018-09-17T02:31:50.471Z,0
2018-09-17T02:32:02.906Z,0
2018-09-17T02:32:15.318Z,0
2018-09-17T02:32:27.740Z,0
2018-09-17T02:32:40.172Z,0
2018-09-17T02:32:52.629Z,0
2018-09-17T02:33:05.051Z,0
2018-09-17T02:33:17.490Z,0
2018-09-17T02:33:30.071Z,0
2018-09-17T02:33:42.494Z,0
2018-09-17T02:33:54.934Z,0
2018-09-17T02:34:07.381Z,0
2018-09-17T02:34:19.805Z,0
2018-09-17T02:34:32.264Z,0
2018-09-17T02:34:44.731Z,0
2018-09-17T02:34:57.175Z,0
2018-09-17T02:35:09.644Z,0
2018-09-17T02:35:22.061Z,0
2018-09-17T02:35:34.476Z,0
2018-09-17T02:35:46.932Z,0
2018-09-17T02:35:59.399Z,0
2018-09-17T02:36:11.820Z,0
2018-09-17T02:36:24.435Z,0
2018-09-17T02:36:36.886Z,0
2018-09-17T02:36:49.339Z,0
2018-09-17T02:37:01.745Z,0
2018-09-17T02:37:14.175Z,0
2018-09-17T02:37:26.673Z,0
2018-09-17T02:37:39.102Z,0
2018-09-17T02:37:51.541Z,0
2018-09-17T02:38:03.965Z,0
2018-09-17T02:38:16.507Z,0
2018-09-17T02:38:28.911Z,0
2018-09-17T02:38:41.349Z,0
2018-09-17T02:38:53.832Z,0
2018-09-17T02:39:06.223Z,0
2018-09-17T02:39:18.654Z,0
2018-09-17T02:39:31.123Z,0
2018-09-17T02:39:43.542Z,0
2018-09-17T02:39:55.988Z,0
2018-09-17T02:40:08.432Z,0
2018-09-17T02:40:21.008Z,0
2018-09-17T02:40:33.432Z,0
2018-09-17T02:40:45.874Z,0
2018-09-17T02:40:58.304Z,0
2018-09-17T02:41:10.712Z,0
2018-09-17T02:41:23.153Z,0
2018-09-17T02:41:35.569Z,0
2018-09-17T02:41:47.991Z,0
2018-09-17T02:42:00.432Z,0
2018-09-17T02:42:12.868Z,0
2018-09-17T02:42:25.271Z,0
2018-09-17T02:42:37.711Z,0
2018-09-17T02:42:50.109Z,0
2018-09-17T02:43:02.545Z,0
2018-09-17T02:43:14.969Z,0
2018-09-17T02:43:27.395Z,0
2018-09-17T02:43:39.875Z,0
2018-09-17T02:43:52.280Z,0
2018-09-17T02:44:04.713Z,0
2018-09-17T02:44:17.142Z,0
2018-09-17T02:44:29.937Z,0
2018-09-17T02:44:42.365Z,0
2018-09-17T02:44:54.798Z,0
2018-09-17T02:45:07.194Z,0
2018-09-17T02:45:19.600Z,0
2018-09-17T02:45:32.036Z,0
2018-09-17T02:45:44.444Z,0
2018-09-17T02:45:56.870Z,0
2018-09-17T02:46:09.287Z,0
2018-09-17T02:46:21.697Z,0
2018-09-17T02:46:34.125Z,0
2018-09-17T02:46:46.558Z,0
2018-09-17T02:46:58.975Z,0
2018-09-17T02:47:11.400Z,0
2018-09-17T02:47:23.802Z,0
2018-09-17T02:47:36.228Z,0
2018-09-17T02:47:48.636Z,0
2018-09-17T02:48:01.073Z,0
2018-09-17T02:48:13.477Z,0
2018-09-17T02:48:25.917Z,0
2018-09-17T02:48:38.350Z,0
2018-09-17T02:48:50.754Z,0
2018-09-17T02:49:03.157Z,0
2018-09-17T02:49:15.626Z,0
2018-09-17T02:49:28.069Z,0
2018-09-17T02:49:40.517Z,0
2018-09-17T02:49:52.917Z,0
2018-09-17T02:50:05.809Z,0
2018-09-17T02:50:18.242Z,0
2018-09-17T02:50:30.692Z,0
2018-09-17T02:50:43.124Z,0
2018-09-17T02:50:55.530Z,0
2018-09-17T02:51:07.946Z,0
2018-09-17T02:51:20.352Z,0
2018-09-17T02:51:32.780Z,0
2018-09-17T02:51:45.184Z,0
2018-09-17T02:51:57.616Z,0
2018-09-17T02:52:10.023Z,0
2018-09-17T02:52:22.460Z,0
2018-09-17T02:52:34.871Z,0
2018-09-17T02:52:47.262Z,0
2018-09-17T02:52:59.671Z,0
2018-09-17T02:53:12.081Z,0
2018-09-17T02:53:24.816Z,0
2018-09-17T02:53:38.166Z,0
2018-09-17T02:53:51.551Z,0
2018-09-17T02:54:04.012Z,0
2018-09-17T02:54:16.441Z,0